Groningen, Minnesota
Current Conditions -  °F | °C
As of 3:06 AM on Saturday 22 Nov 2014 (Local Time) from K04W Reporting Station
Clear Clear  
Wind Chill: 32°   Ceiling: Unl
Heat Index: 32°   Visibility: 10mi
Dew Point: 30°   Wind: 0mph
Humidity: 93%   Direction: NA
Pressure: 29.77"   Gusts: NA
Location:  46.138°N, 92.5611°W
Report Text: K04W 220906Z AUTO 00000KT 10SM CLR 00/M01 A2977 RMK AO2
Loading
Personal Weather Stations






























Interactive Weather Map New forecast layout! Learn more

10-Day Weather Forecast

Advertisements
Track Severe Weather on mobile